Time;durP1;ratioP1;P1;durP2;ratioP2;P2;SDS_P1;SDS_P2;PMS_P1;PMS_P2;Temp;Humidity;BMP_temperature;BMP_pressure;BME280_temperature;BME280_humidity;BME280_pressure;Samples;Min_cycle;Max_cycle;Signal;HPM_P1;HPM_P2
2024/01/04 00:02:30;;;;;;;10.20;2.30;;;14.90;96.70;;;;;;4912543;29;20122;-75
2024/01/04 00:08:08;;;;;;;10.68;2.67;;;14.90;96.70;;;;;;4910982;29;20086;-75
2024/01/04 00:10:53;;;;;;;11.88;2.90;;;14.90;96.70;;;;;;4903467;29;20079;-75
2024/01/04 00:14:08;;;;;;;11.77;2.58;;;14.90;96.70;;;;;;4906690;29;20070;-75
2024/01/04 00:16:38;;;;;;;11.15;2.88;;;14.90;96.70;;;;;;4908763;29;20063;-75
2024/01/04 00:19:41;;;;;;;13.50;3.15;;;14.90;96.70;;;;;;4857081;29;20057;-73
2024/01/04 00:22:10;;;;;;;13.43;3.10;;;14.90;96.70;;;;;;4843553;29;20144;-74
2024/01/04 00:24:39;;;;;;;18.00;2.97;;;14.90;96.70;;;;;;4882739;29;20055;-75
2024/01/04 00:27:14;;;;;;;15.80;2.53;;;15.00;96.70;;;;;;4893086;29;20759;-74
2024/01/04 00:29:43;;;;;;;11.77;2.70;;;15.00;96.70;;;;;;4925481;29;20058;-75
2024/01/04 00:32:30;;;;;;;15.82;2.85;;;15.00;96.70;;;;;;4905696;29;20076;-76
2024/01/04 00:38:48;;;;;;;14.43;2.47;;;15.00;96.70;;;;;;4835692;29;20130;-76
2024/01/04 00:41:22;;;;;;;15.27;3.28;;;15.00;96.70;;;;;;4834905;29;20069;-75
2024/01/04 00:45:02;;;;;;;17.77;3.33;;;15.00;96.70;;;;;;4842261;29;20056;-75
2024/01/04 00:47:32;;;;;;;12.82;2.67;;;15.00;96.70;;;;;;4817027;29;20070;-76
2024/01/04 00:50:02;;;;;;;11.20;2.58;;;15.00;96.70;;;;;;4868949;29;20059;-75
2024/01/04 00:52:30;;;;;;;10.00;2.45;;;15.00;96.70;;;;;;4876228;29;20056;-75
2024/01/04 00:55:00;;;;;;;19.38;3.80;;;15.00;96.70;;;;;;4899614;29;20068;-75
2024/01/04 00:57:33;;;;;;;18.25;2.90;;;15.00;96.70;;;;;;4905926;29;20062;-75
2024/01/04 01:00:04;;;;;;;13.93;2.83;;;15.00;96.70;;;;;;4904663;29;20066;-75
2024/01/04 01:02:47;;;;;;;15.95;3.25;;;15.00;96.70;;;;;;4886822;29;20425;-75
2024/01/04 01:05:24;;;;;;;16.27;3.05;;;15.00;96.70;;;;;;4892206;29;20067;-75
2024/01/04 01:07:53;;;;;;;13.38;2.53;;;15.00;96.70;;;;;;4891921;29;20060;-74
2024/01/04 01:10:22;;;;;;;15.60;3.53;;;15.00;96.70;;;;;;4892316;29;20048;-76
2024/01/04 01:12:55;;;;;;;16.98;3.22;;;15.00;96.70;;;;;;4890697;29;20063;-76
2024/01/04 01:15:29;;;;;;;12.18;3.03;;;15.00;96.70;;;;;;4888947;29;20059;-75
2024/01/04 01:18:00;;;;;;;14.88;3.10;;;15.00;96.70;;;;;;4892045;29;20072;-75
2024/01/04 01:20:30;;;;;;;15.35;3.40;;;15.00;96.70;;;;;;4907653;29;20179;-76
2024/01/04 01:23:53;;;;;;;18.95;3.53;;;15.00;96.70;;;;;;4898792;29;20207;-76
2024/01/04 01:29:21;;;;;;;;;;;15.00;96.70;;;;;;4887582;29;20453;-75
2024/01/04 01:32:02;;;;;;;;;;;;;;;;;;;;;
2024/01/04 01:34:34;;;;;;;14.25;2.80;;;15.00;96.70;;;;;;4907182;29;20204;-75
2024/01/04 01:37:03;;;;;;;20.83;3.47;;;15.00;96.70;;;;;;4907493;29;20124;-76
2024/01/04 01:39:47;;;;;;;;;;;;;;;;;;;;;
2024/01/04 01:42:20;;;;;;;14.02;2.90;;;14.90;96.70;;;;;;4891513;29;20059;-74
2024/01/04 01:44:49;;;;;;;17.90;2.67;;;14.90;96.70;;;;;;4906682;29;20121;-75
2024/01/04 01:47:19;;;;;;;16.77;3.45;;;14.90;96.70;;;;;;4925781;29;20161;-74
2024/01/04 01:49:48;;;;;;;15.55;3.45;;;14.90;96.70;;;;;;4910293;29;20064;-75
2024/01/04 01:52:20;;;;;;;16.52;3.75;;;14.90;96.70;;;;;;4891800;29;20144;-73
2024/01/04 01:54:50;;;;;;;16.40;3.50;;;14.90;96.70;;;;;;4925851;29;20052;-74
2024/01/04 01:57:20;;;;;;;21.05;3.72;;;14.90;96.70;;;;;;4911175;29;20721;-75
2024/01/04 01:59:53;;;;;;;15.55;3.25;;;14.90;96.70;;;;;;4904811;29;20611;-75
2024/01/04 02:02:24;;;;;;;15.43;3.38;;;14.80;96.70;;;;;;4924370;29;20051;-74
2024/01/04 02:04:54;;;;;;;13.60;3.47;;;14.80;96.70;;;;;;4910123;29;20150;-74
2024/01/04 02:08:02;;;;;;;14.63;2.97;;;14.80;96.70;;;;;;4908537;29;20155;-77
2024/01/04 02:10:31;;;;;;;15.35;3.42;;;14.80;96.70;;;;;;4925232;29;20048;-76
2024/01/04 02:13:00;;;;;;;15.73;4.10;;;14.80;96.70;;;;;;4893993;29;20110;-77
2024/01/04 02:15:28;;;;;;;13.57;3.53;;;14.90;96.70;;;;;;4911357;29;20060;-74
2024/01/04 02:18:48;;;;;;;19.77;3.60;;;14.80;96.70;;;;;;4865849;29;20056;-74
2024/01/04 02:21:18;;;;;;;17.13;3.60;;;14.80;96.70;;;;;;4876628;29;20143;-74
2024/01/04 02:23:50;;;;;;;15.35;3.15;;;14.80;96.70;;;;;;4864874;29;20165;-74
2024/01/04 02:26:22;;;;;;;12.73;2.92;;;14.80;96.70;;;;;;4860213;29;20657;-73
2024/01/04 02:28:59;;;;;;;15.77;3.38;;;14.80;96.70;;;;;;4862254;29;20201;-74
2024/01/04 02:31:34;;;;;;;16.98;3.28;;;14.80;96.70;;;;;;4864753;29;20072;-76
2024/01/04 02:34:03;;;;;;;16.13;3.13;;;14.80;96.70;;;;;;4866238;29;20478;-76
2024/01/04 02:36:36;;;;;;;15.23;3.38;;;14.80;96.70;;;;;;4864472;29;20057;-74
2024/01/04 02:39:09;;;;;;;14.07;3.70;;;14.80;96.70;;;;;;4855677;29;20057;-76
2024/01/04 02:41:40;;;;;;;14.25;3.40;;;14.80;96.70;;;;;;4875094;29;20052;-77
2024/01/04 02:44:26;;;;;;;15.05;2.90;;;14.80;96.70;;;;;;4870850;29;20057;-73
2024/01/04 02:46:56;;;;;;;15.23;2.95;;;14.80;96.70;;;;;;4877033;29;20072;-75
2024/01/04 02:49:24;;;;;;;16.95;3.80;;;14.80;96.70;;;;;;4898348;29;21273;-74
2024/01/04 02:52:08;;;;;;;14.20;3.47;;;14.70;96.70;;;;;;4909817;29;20048;-75
2024/01/04 02:54:42;;;;;;;16.48;3.13;;;14.70;96.70;;;;;;4929003;29;20063;-76
2024/01/04 02:57:11;;;;;;;18.30;4.07;;;14.70;96.70;;;;;;4910709;29;20449;-77
2024/01/04 02:59:40;;;;;;;11.93;3.08;;;14.80;96.70;;;;;;4913225;29;20059;-77
2024/01/04 03:02:09;;;;;;;15.63;3.67;;;14.80;96.70;;;;;;4897721;29;20484;-77
2024/01/04 03:04:42;;;;;;;17.67;4.07;;;14.80;96.70;;;;;;4912492;29;20079;-77
2024/01/04 03:07:13;;;;;;;14.10;2.85;;;14.80;96.70;;;;;;4929125;29;20163;-77
2024/01/04 03:09:43;;;;;;;17.17;3.92;;;14.70;96.70;;;;;;4897196;29;20150;-76
2024/01/04 03:12:19;;;;;;;23.67;5.10;;;14.70;96.70;;;;;;4927889;29;20078;-75
2024/01/04 03:14:50;;;;;;;14.85;3.80;;;14.70;96.70;;;;;;4912981;29;20071;-77
2024/01/04 03:17:20;;;;;;;17.00;3.60;;;14.70;96.70;;;;;;4912954;29;20063;-77
2024/01/04 03:19:49;;;;;;;20.02;3.97;;;14.70;96.70;;;;;;4912062;29;20060;-74
2024/01/04 03:22:18;;;;;;;14.20;2.92;;;14.70;96.70;;;;;;4921606;29;20075;-75
2024/01/04 03:24:51;;;;;;;18.33;3.95;;;14.70;96.70;;;;;;4904591;29;20074;-72
2024/01/04 03:27:23;;;;;;;15.07;2.83;;;14.70;96.70;;;;;;4927498;29;20142;-76
2024/01/04 03:29:52;;;;;;;18.58;3.40;;;14.70;96.70;;;;;;4915222;29;20143;-76
2024/01/04 03:32:21;;;;;;;17.25;3.38;;;14.70;96.70;;;;;;4895992;29;20056;-76
2024/01/04 03:34:50;;;;;;;19.75;4.10;;;14.70;96.70;;;;;;4926401;29;20137;-76
2024/01/04 03:37:19;;;;;;;17.60;3.42;;;14.70;96.70;;;;;;4928277;29;20056;-76
2024/01/04 03:39:52;;;;;;;17.85;3.55;;;14.60;96.70;;;;;;4912349;29;20102;-76
2024/01/04 03:42:23;;;;;;;16.60;3.17;;;14.60;96.70;;;;;;4909306;29;20084;-74
2024/01/04 03:44:57;;;;;;;14.38;3.75;;;14.60;96.70;;;;;;4897389;29;20084;-74
2024/01/04 03:47:26;;;;;;;15.13;3.20;;;14.60;96.70;;;;;;4909270;29;20060;-73
2024/01/04 03:49:55;;;;;;;17.33;4.10;;;14.60;96.70;;;;;;4909388;29;20068;-74
2024/01/04 03:52:24;;;;;;;14.30;3.38;;;14.60;96.70;;;;;;4906416;29;20134;-76
2024/01/04 03:54:56;;;;;;;18.65;4.03;;;14.60;96.70;;;;;;4899268;29;20371;-76
2024/01/04 03:57:26;;;;;;;18.00;3.58;;;14.60;96.70;;;;;;4874594;29;20064;-76
2024/01/04 03:59:55;;;;;;;20.08;3.83;;;14.60;96.70;;;;;;4908564;29;20056;-76
2024/01/04 04:02:24;;;;;;;20.50;3.80;;;14.60;96.70;;;;;;4876712;29;20063;-77
2024/01/04 04:04:56;;;;;;;17.77;4.18;;;14.60;96.70;;;;;;4893004;29;20775;-76
2024/01/04 04:07:24;;;;;;;20.55;4.40;;;14.60;96.70;;;;;;4878119;29;20371;-76
2024/01/04 04:09:55;;;;;;;21.80;4.47;;;14.60;96.70;;;;;;4907927;29;20052;-75
2024/01/04 04:12:25;;;;;;;23.00;4.00;;;14.60;96.70;;;;;;4899142;29;20056;-76
2024/01/04 04:14:54;;;;;;;16.38;3.38;;;14.60;96.70;;;;;;4908878;29;20052;-76
2024/01/04 04:17:24;;;;;;;18.95;4.32;;;14.60;96.70;;;;;;4878528;29;20056;-76
2024/01/04 04:19:53;;;;;;;17.83;3.92;;;14.60;96.70;;;;;;4890362;29;20055;-76
2024/01/04 04:22:25;;;;;;;24.80;5.32;;;14.60;96.70;;;;;;4892404;29;20053;-75
2024/01/04 04:24:56;;;;;;;17.40;3.90;;;14.70;96.70;;;;;;4889780;29;20476;-76
2024/01/04 04:27:27;;;;;;;18.40;3.90;;;14.60;96.70;;;;;;4875085;29;20060;-74
2024/01/04 04:29:58;;;;;;;19.08;4.57;;;14.60;96.70;;;;;;4892590;29;20063;-75
2024/01/04 04:32:26;;;;;;;17.80;4.03;;;14.60;96.70;;;;;;4894143;29;20549;-75
2024/01/04 04:34:55;;;;;;;23.27;4.05;;;14.60;96.70;;;;;;4904711;29;20926;-74
2024/01/04 04:37:24;;;;;;;21.52;4.30;;;14.60;96.70;;;;;;4908386;29;20060;-75
2024/01/04 04:39:57;;;;;;;23.42;4.20;;;14.60;96.70;;;;;;4908678;29;20056;-75
2024/01/04 04:42:26;;;;;;;18.05;5.00;;;14.60;96.70;;;;;;4889531;29;20060;-75
2024/01/04 04:44:55;;;;;;;22.58;4.47;;;14.60;96.70;;;;;;4906063;29;20055;-74
2024/01/04 04:48:17;;;;;;;18.25;4.35;;;14.60;96.70;;;;;;4891308;29;20064;-75
2024/01/04 04:50:48;;;;;;;21.88;4.95;;;14.60;96.70;;;;;;4892597;29;20052;-74
2024/01/04 04:53:17;;;;;;;24.23;4.82;;;14.60;96.70;;;;;;4895275;29;20066;-74
2024/01/04 04:55:49;;;;;;;15.35;3.75;;;14.60;96.70;;;;;;4891929;29;20100;-76
2024/01/04 04:58:20;;;;;;;16.52;4.63;;;14.60;96.70;;;;;;4907055;29;20052;-77
2024/01/04 05:00:50;;;;;;;17.25;4.40;;;14.60;96.70;;;;;;4888506;29;20056;-76
2024/01/04 05:03:20;;;;;;;21.33;4.00;;;14.60;96.70;;;;;;4890518;29;20059;-76
2024/01/04 05:05:54;;;;;;;19.33;4.00;;;14.60;96.70;;;;;;4906308;29;20527;-74
2024/01/04 05:08:24;;;;;;;19.70;3.78;;;14.60;96.70;;;;;;4907181;29;20055;-75
2024/01/04 05:10:55;;;;;;;17.60;3.88;;;14.60;96.70;;;;;;4889108;29;20068;-75
2024/01/04 05:13:25;;;;;;;19.85;4.05;;;14.60;96.70;;;;;;4901777;29;20167;-75
2024/01/04 05:15:57;;;;;;;23.70;4.72;;;14.60;96.70;;;;;;4905412;29;20673;-75
2024/01/04 05:18:26;;;;;;;16.77;3.78;;;14.50;96.70;;;;;;4889938;29;20072;-75
2024/01/04 05:21:13;;;;;;;21.88;4.72;;;14.60;96.70;;;;;;4891700;29;20470;-75
2024/01/04 05:23:42;;;;;;;19.30;3.30;;;14.50;96.70;;;;;;4890112;29;20556;-74
2024/01/04 05:26:23;;;;;;;23.92;4.18;;;14.50;96.70;;;;;;4887196;29;20064;-75
2024/01/04 05:28:52;;;;;;;22.08;4.55;;;14.50;96.70;;;;;;4891737;29;20051;-74
2024/01/04 05:31:26;;;;;;;21.88;3.95;;;14.50;96.70;;;;;;4906902;29;20154;-75
2024/01/04 05:33:55;;;;;;;20.60;4.30;;;14.60;96.70;;;;;;4892006;29;20178;-75
2024/01/04 05:36:54;;;;;;;23.05;4.00;;;14.60;96.70;;;;;;4891465;29;20056;-74
2024/01/04 05:39:30;;;;;;;19.27;4.28;;;14.60;96.70;;;;;;4871099;29;20056;-75
2024/01/04 05:42:02;;;;;;;14.63;4.13;;;14.60;96.70;;;;;;4907879;29;20107;-74
2024/01/04 05:44:31;;;;;;;18.52;3.78;;;14.60;96.70;;;;;;4869567;29;20131;-75
2024/01/04 05:47:01;;;;;;;20.67;4.40;;;14.50;96.70;;;;;;4923707;29;20060;-74
2024/01/04 05:49:33;;;;;;;19.40;4.35;;;14.50;96.70;;;;;;4897423;29;20056;-75
2024/01/04 05:52:03;;;;;;;18.30;4.00;;;14.50;96.70;;;;;;4886016;29;20163;-75
2024/01/04 05:54:31;;;;;;;19.10;4.22;;;14.50;96.70;;;;;;4910699;29;20064;-74
2024/01/04 05:57:18;;;;;;;16.75;3.88;;;14.50;96.70;;;;;;4910174;29;20059;-74
2024/01/04 05:59:47;;;;;;;18.98;3.72;;;14.50;96.70;;;;;;4909921;29;20067;-75
2024/01/04 06:02:27;;;;;;;20.20;3.65;;;14.50;96.70;;;;;;4909389;29;20462;-74
2024/01/04 06:04:57;;;;;;;17.13;4.05;;;14.50;96.70;;;;;;4888933;29;20055;-74
2024/01/04 06:07:26;;;;;;;20.10;4.00;;;14.50;96.70;;;;;;4903425;29;20060;-75
2024/01/04 06:09:57;;;;;;;20.90;4.20;;;14.40;96.70;;;;;;4922811;29;20060;-74
2024/01/04 06:12:28;;;;;;;17.85;4.10;;;14.40;96.70;;;;;;4893083;29;20163;-75
2024/01/04 06:15:00;;;;;;;16.25;3.83;;;14.40;96.70;;;;;;4917879;29;20068;-76
2024/01/04 06:17:59;;;;;;;15.77;3.70;;;14.30;96.70;;;;;;4904712;29;20052;-75
2024/01/04 06:25:23;;;;;;;17.13;3.67;;;14.20;96.70;;;;;;4736670;30;20471;-74
2024/01/04 06:27:55;;;;;;;23.25;4.97;;;14.20;96.70;;;;;;4749389;30;20529;-75
2024/01/04 06:30:24;;;;;;;22.55;4.43;;;14.10;96.70;;;;;;4741426;30;20074;-75
2024/01/04 06:32:58;;;;;;;19.83;4.07;;;14.10;96.70;;;;;;4760195;30;20058;-75
2024/01/04 06:35:34;;;;;;;16.75;4.43;;;14.10;96.70;;;;;;4734209;30;20535;-75
2024/01/04 06:38:07;;;;;;;19.92;4.20;;;14.00;96.70;;;;;;4735627;30;20151;-75
2024/01/04 06:40:40;;;;;;;24.67;4.95;;;14.00;96.70;;;;;;4746225;30;20075;-74
2024/01/04 06:43:27;;;;;;;18.33;4.25;;;14.00;96.70;;;;;;4745947;30;20055;-75
2024/01/04 06:45:59;;;;;;;24.83;4.72;;;14.00;96.70;;;;;;4730037;30;20265;-74
2024/01/04 06:48:38;;;;;;;19.65;4.32;;;14.00;96.70;;;;;;4714160;30;20166;-75
2024/01/04 06:51:07;;;;;;;21.25;4.35;;;14.00;96.70;;;;;;4744849;29;20188;-75
2024/01/04 06:53:36;;;;;;;18.15;4.07;;;14.00;96.70;;;;;;4783145;29;20402;-75
2024/01/04 06:56:08;;;;;;;22.70;4.82;;;14.00;96.70;;;;;;4910470;29;20056;-75
2024/01/04 06:58:45;;;;;;;20.52;3.85;;;14.00;96.70;;;;;;4895659;29;20067;-75
2024/01/04 07:01:20;;;;;;;19.67;4.68;;;14.00;96.70;;;;;;4904791;29;20419;-74
2024/01/04 07:03:52;;;;;;;18.63;3.97;;;14.00;96.70;;;;;;4908832;29;20115;-75
2024/01/04 07:06:21;;;;;;;19.95;3.83;;;14.00;96.70;;;;;;4879638;29;20673;-75
2024/01/04 07:09:05;;;;;;;23.80;4.55;;;14.00;96.70;;;;;;4894699;29;20055;-74
2024/01/04 07:11:46;;;;;;;17.35;3.22;;;13.90;96.70;;;;;;4893002;29;20581;-75
2024/01/04 07:14:57;;;;;;;17.63;4.60;;;13.90;96.70;;;;;;4857473;29;20067;-75
2024/01/04 07:17:27;;;;;;;20.63;4.95;;;13.90;96.70;;;;;;4904652;29;20067;-75
2024/01/04 07:19:56;;;;;;;24.23;3.50;;;14.00;96.70;;;;;;4909087;29;20061;-74
2024/01/04 07:22:25;;;;;;;26.95;5.03;;;13.90;96.70;;;;;;4880638;29;20060;-73
2024/01/04 07:24:53;;;;;;;21.20;4.43;;;14.00;96.70;;;;;;4893742;29;20064;-73
2024/01/04 07:27:23;;;;;;;21.75;4.35;;;14.00;96.70;;;;;;4889244;29;20075;-72
2024/01/04 07:29:52;;;;;;;19.17;3.55;;;14.00;96.70;;;;;;4908577;29;20780;-74
2024/01/04 07:32:56;;;;;;;18.52;3.92;;;14.00;96.70;;;;;;4911523;29;20545;-73
2024/01/04 07:35:47;;;;;;;21.30;4.68;;;14.00;96.70;;;;;;4879157;29;20095;-74
2024/01/04 07:38:25;;;;;;;20.95;4.15;;;14.00;96.70;;;;;;4911547;29;20589;-74
2024/01/04 07:40:58;;;;;;;20.58;3.88;;;14.10;96.70;;;;;;4907622;29;20462;-74
2024/01/04 07:43:33;;;;;;;20.48;4.53;;;14.10;96.70;;;;;;4909087;29;20071;-74
2024/01/04 07:46:26;;;;;;;21.52;4.82;;;14.10;96.70;;;;;;4916399;29;20083;-74
2024/01/04 07:52:56;;;;;;;19.00;3.60;;;14.20;96.70;;;;;;4877566;29;20594;-74
2024/01/04 08:03:20;;;;;;;21.40;3.75;;;14.30;96.70;;;;;;4929023;29;20107;-73
2024/01/04 08:09:53;;;;;;;20.65;3.47;;;14.40;96.70;;;;;;4883360;29;20167;-73
2024/01/04 08:12:23;;;;;;;24.10;4.28;;;14.50;96.70;;;;;;4898981;29;20473;-72
2024/01/04 08:14:57;;;;;;;18.58;3.85;;;14.50;96.70;;;;;;4926127;29;20151;-74
2024/01/04 08:20:38;;;;;;;17.40;3.30;;;14.60;96.70;;;;;;4925278;29;20066;-74
2024/01/04 08:23:07;;;;;;;19.10;3.65;;;14.60;96.70;;;;;;4919943;29;20059;-74
2024/01/04 08:25:37;;;;;;;24.88;4.43;;;14.70;96.70;;;;;;4911878;29;20071;-74
2024/01/04 08:28:10;;;;;;;26.05;3.92;;;14.70;96.70;;;;;;4896459;29;20533;-75
2024/01/04 08:30:39;;;;;;;20.65;4.10;;;14.70;96.70;;;;;;4911663;29;20525;-75
2024/01/04 08:33:08;;;;;;;17.75;3.88;;;14.80;96.70;;;;;;4926651;29;20047;-75
2024/01/04 08:35:37;;;;;;;22.30;5.18;;;14.80;96.70;;;;;;4927377;29;20056;-75
2024/01/04 08:38:06;;;;;;;27.02;4.57;;;14.80;96.70;;;;;;4927164;29;20051;-75
2024/01/04 08:40:40;;;;;;;27.13;4.00;;;14.80;96.70;;;;;;4911538;29;20075;-74
2024/01/04 08:43:08;;;;;;;23.83;4.15;;;14.80;96.70;;;;;;4911343;29;20060;-74
2024/01/04 08:45:37;;;;;;;26.58;5.22;;;14.80;96.70;;;;;;4923286;29;20060;-75
2024/01/04 08:48:06;;;;;;;16.65;3.50;;;14.70;96.70;;;;;;4908645;29;20071;-75
2024/01/04 08:50:35;;;;;;;18.05;3.88;;;14.70;96.70;;;;;;4924217;29;20052;-75
2024/01/04 08:53:04;;;;;;;22.15;3.75;;;14.70;96.70;;;;;;4904954;29;20060;-74
2024/01/04 08:55:33;;;;;;;24.70;4.43;;;14.80;96.70;;;;;;4919198;29;20056;-75
2024/01/04 08:58:04;;;;;;;23.30;4.40;;;14.80;96.70;;;;;;4891995;29;20068;-74
2024/01/04 09:00:35;;;;;;;18.80;3.78;;;14.90;96.70;;;;;;4916366;29;20524;-76
2024/01/04 09:03:04;;;;;;;16.48;2.97;;;15.00;96.70;;;;;;4908163;29;20056;-74
2024/01/04 09:05:33;;;;;;;20.80;3.72;;;15.10;96.70;;;;;;4908233;29;20052;-73
2024/01/04 09:08:04;;;;;;;21.13;4.30;;;15.20;96.70;;;;;;4907235;29;20096;-74
2024/01/04 09:10:33;;;;;;;19.02;4.05;;;15.30;96.70;;;;;;4923054;29;20063;-73
2024/01/04 09:13:04;;;;;;;19.63;4.20;;;15.50;96.70;;;;;;4922851;29;20067;-74
2024/01/04 09:15:33;;;;;;;15.55;3.63;;;15.60;96.70;;;;;;4907281;29;20064;-74
2024/01/04 09:18:01;;;;;;;19.63;3.88;;;15.70;96.70;;;;;;4904785;29;20526;-73
2024/01/04 09:20:30;;;;;;;21.38;5.25;;;15.80;96.70;;;;;;4922951;29;20098;-73
2024/01/04 09:22:58;;;;;;;18.27;4.22;;;15.80;96.70;;;;;;4922533;29;20063;-74
2024/01/04 09:25:27;;;;;;;19.45;4.35;;;15.80;96.70;;;;;;4907342;29;20064;-73
2024/01/04 09:27:56;;;;;;;19.00;4.10;;;15.80;96.70;;;;;;4906462;29;20052;-74
2024/01/04 09:30:29;;;;;;;16.23;3.78;;;15.70;96.70;;;;;;4904569;29;20060;-74
2024/01/04 09:32:58;;;;;;;22.70;4.72;;;15.80;96.70;;;;;;4929324;29;20421;-76
2024/01/04 09:35:27;;;;;;;17.60;3.80;;;15.80;96.70;;;;;;4903910;29;20406;-75
2024/01/04 09:37:55;;;;;;;18.25;4.28;;;15.90;96.70;;;;;;4927769;29;20062;-73
2024/01/04 09:40:24;;;;;;;23.00;4.07;;;15.90;96.70;;;;;;4919734;29;20044;-74
2024/01/04 09:42:55;;;;;;;19.88;3.92;;;15.90;96.70;;;;;;4915898;29;20056;-74
2024/01/04 09:45:36;;;;;;;20.45;4.95;;;15.90;96.70;;;;;;4894908;29;20147;-74
2024/01/04 09:48:18;;;;;;;20.17;4.25;;;16.00;96.70;;;;;;4902953;29;20127;-73
2024/01/04 09:51:00;;;;;;;20.67;4.35;;;16.00;96.70;;;;;;4928276;29;20068;-73
2024/01/04 09:53:33;;;;;;;20.85;4.63;;;16.10;96.70;;;;;;4914318;29;20147;-74
2024/01/04 09:56:08;;;;;;;17.40;4.07;;;16.10;96.70;;;;;;4907018;29;20143;-74
2024/01/04 09:58:38;;;;;;;17.75;3.35;;;16.20;96.70;;;;;;4914084;29;20528;-75
2024/01/04 10:01:11;;;;;;;14.80;3.45;;;16.30;96.70;;;;;;4929740;29;20115;-74
2024/01/04 10:04:04;;;;;;;21.08;3.92;;;16.30;96.70;;;;;;4914360;29;20548;-74
2024/01/04 10:06:53;;;;;;;16.90;4.68;;;16.40;96.70;;;;;;4930748;29;20055;-74
2024/01/04 10:09:35;;;;;;;17.00;3.35;;;16.30;96.70;;;;;;4913014;29;20066;-74
2024/01/04 10:12:05;;;;;;;17.08;3.92;;;16.30;96.70;;;;;;4912006;29;20679;-74
2024/01/04 10:14:35;;;;;;;21.17;3.38;;;16.30;96.70;;;;;;4913539;29;20043;-74
2024/01/04 10:17:06;;;;;;;16.90;3.90;;;16.20;96.70;;;;;;4915167;29;20442;-73
2024/01/04 10:19:35;;;;;;;17.40;4.03;;;16.10;96.70;;;;;;4897501;29;20087;-73
2024/01/04 10:22:06;;;;;;;19.70;4.20;;;16.20;96.70;;;;;;4913188;29;20055;-74
2024/01/04 10:24:37;;;;;;;22.77;4.88;;;16.30;96.70;;;;;;4912895;29;20060;-74
2024/01/04 10:27:08;;;;;;;15.60;3.97;;;16.40;96.70;;;;;;4905177;29;20059;-75
2024/01/04 10:29:38;;;;;;;15.95;3.08;;;16.50;96.70;;;;;;4905499;29;20064;-74
2024/01/04 10:32:12;;;;;;;20.77;4.55;;;16.50;96.70;;;;;;4914283;29;20103;-75
2024/01/04 10:34:42;;;;;;;17.75;3.63;;;16.50;96.70;;;;;;4920265;29;20534;-74
2024/01/04 10:37:22;;;;;;;16.13;4.40;;;16.50;96.70;;;;;;4925340;29;20055;-74
2024/01/04 10:39:56;;;;;;;21.02;3.83;;;16.60;96.70;;;;;;4929514;29;20114;-75
2024/01/04 10:42:29;;;;;;;25.20;4.30;;;16.80;96.70;;;;;;4898140;29;20198;-75
2024/01/04 10:45:27;;;;;;;15.75;3.30;;;16.90;96.70;;;;;;4913682;29;20056;-76
2024/01/04 10:47:58;;;;;;;19.13;3.83;;;16.90;96.70;;;;;;4905287;29;20175;-76
2024/01/04 10:50:30;;;;;;;17.25;3.95;;;16.80;96.70;;;;;;4904469;29;20174;-76
2024/01/04 10:53:03;;;;;;;18.83;3.28;;;16.70;96.70;;;;;;4928431;29;20070;-76
2024/01/04 10:55:32;;;;;;;24.05;4.30;;;16.80;96.70;;;;;;4913330;29;20453;-76
2024/01/04 10:58:02;;;;;;;19.27;4.07;;;16.70;96.70;;;;;;4897653;29;20130;-76
2024/01/04 11:00:33;;;;;;;15.32;4.13;;;16.70;96.70;;;;;;4922422;29;20083;-75
2024/01/04 11:03:09;;;;;;;24.33;3.75;;;16.70;96.70;;;;;;4929203;29;20064;-77
2024/01/04 11:05:40;;;;;;;18.30;3.40;;;16.70;96.70;;;;;;4910920;29;20070;-76
2024/01/04 11:08:10;;;;;;;23.42;4.05;;;16.70;96.70;;;;;;4913221;29;20741;-77
2024/01/04 11:10:41;;;;;;;13.30;3.28;;;16.70;96.70;;;;;;4897300;29;20517;-77
2024/01/04 11:13:10;;;;;;;19.17;3.33;;;16.80;96.70;;;;;;4905918;29;20090;-77
2024/01/04 11:15:39;;;;;;;23.45;4.60;;;16.80;96.70;;;;;;4919797;29;20086;-76
2024/01/04 11:18:21;;;;;;;16.70;4.25;;;16.90;96.70;;;;;;4928936;29;20126;-76
2024/01/04 11:21:18;;;;;;;17.88;3.03;;;16.90;96.70;;;;;;4907072;29;20541;-76
2024/01/04 11:24:07;;;;;;;14.35;3.53;;;17.00;96.70;;;;;;4912479;29;20059;-76
2024/01/04 11:26:44;;;;;;;16.20;3.53;;;17.10;96.70;;;;;;4929301;29;20115;-76
2024/01/04 11:29:14;;;;;;;17.65;3.83;;;17.00;96.70;;;;;;4884164;29;20068;-77
2024/01/04 11:31:46;;;;;;;18.30;3.10;;;16.80;96.70;;;;;;4920042;29;20683;-76
2024/01/04 11:34:16;;;;;;;18.70;4.05;;;16.70;96.70;;;;;;4912504;29;20065;-77
2024/01/04 11:36:45;;;;;;;16.15;4.15;;;16.40;96.70;;;;;;4913557;29;20179;-76
2024/01/04 11:39:14;;;;;;;16.55;3.78;;;16.20;96.70;;;;;;4928819;29;20066;-77
2024/01/04 11:41:42;;;;;;;14.40;3.17;;;16.10;96.70;;;;;;4929302;29;20572;-77
2024/01/04 11:44:20;;;;;;;16.58;3.80;;;16.00;96.70;;;;;;4911617;29;20060;-77
2024/01/04 11:46:56;;;;;;;14.27;3.10;;;16.00;96.70;;;;;;4904994;29;20059;-76
2024/01/04 11:49:27;;;;;;;19.13;3.08;;;16.00;96.70;;;;;;4904611;29;20056;-76
2024/01/04 11:52:04;;;;;;;18.65;3.80;;;16.10;96.70;;;;;;4927951;29;20060;-77
2024/01/04 11:54:36;;;;;;;16.88;3.38;;;16.30;96.70;;;;;;4912052;29;20461;-76
2024/01/04 11:57:17;;;;;;;15.50;3.25;;;16.50;96.70;;;;;;4908727;29;20060;-76
2024/01/04 12:00:19;;;;;;;17.33;2.95;;;16.60;96.70;;;;;;4923261;29;20063;-75
2024/01/04 12:02:51;;;;;;;17.48;3.67;;;16.40;96.70;;;;;;4927900;29;20555;-75
2024/01/04 12:05:23;;;;;;;17.88;4.45;;;16.20;96.70;;;;;;4896950;29;20052;-76
2024/01/04 12:07:54;;;;;;;13.50;2.80;;;16.10;96.70;;;;;;4911030;29;20154;-73
2024/01/04 12:10:23;;;;;;;15.18;3.20;;;16.20;96.70;;;;;;4926469;29;20055;-76
2024/01/04 12:12:52;;;;;;;18.67;4.00;;;16.20;96.70;;;;;;4894450;29;20052;-74
2024/01/04 12:15:20;;;;;;;16.52;2.65;;;16.20;96.70;;;;;;4911560;29;20075;-76
2024/01/04 12:17:51;;;;;;;12.40;2.80;;;16.40;96.70;;;;;;4912523;29;20632;-75
2024/01/04 12:20:19;;;;;;;13.02;3.20;;;16.70;96.70;;;;;;4904015;29;20059;-76
2024/01/04 12:22:51;;;;;;;14.95;3.35;;;16.80;96.70;;;;;;4903172;29;20495;-76
2024/01/04 12:25:20;;;;;;;16.75;3.10;;;16.90;96.70;;;;;;4896138;29;20163;-76
2024/01/04 12:27:49;;;;;;;16.15;3.08;;;16.90;96.70;;;;;;4903321;29;20092;-75
2024/01/04 12:30:18;;;;;;;13.77;3.10;;;16.50;96.70;;;;;;4922754;29;20083;-76
2024/01/04 12:32:47;;;;;;;13.63;2.78;;;16.50;96.70;;;;;;4896747;29;20056;-76
2024/01/04 12:35:18;;;;;;;15.57;3.17;;;16.70;96.70;;;;;;4904731;29;20052;-76
2024/01/04 12:37:57;;;;;;;15.13;2.78;;;16.80;96.70;;;;;;4927449;29;20070;-73
2024/01/04 12:40:27;;;;;;;18.42;2.80;;;16.70;96.70;;;;;;4920902;29;20442;-76
2024/01/04 12:42:55;;;;;;;13.93;2.45;;;16.70;96.70;;;;;;4925898;29;20051;-74
2024/01/04 12:45:27;;;;;;;13.88;2.88;;;16.70;96.70;;;;;;4909639;29;20055;-76
2024/01/04 12:48:01;;;;;;;17.48;3.45;;;16.80;96.70;;;;;;4911233;29;20075;-74
2024/01/04 12:50:51;;;;;;;15.23;3.13;;;17.10;96.70;;;;;;4922535;29;20060;-76
2024/01/04 12:53:19;;;;;;;12.80;2.50;;;17.10;96.70;;;;;;4910403;29;20060;-76
2024/01/04 12:55:52;;;;;;;15.35;2.95;;;17.20;96.70;;;;;;4910151;29;20047;-77
2024/01/04 12:58:21;;;;;;;17.45;3.28;;;17.30;96.70;;;;;;4895421;29;20066;-76
2024/01/04 13:00:54;;;;;;;16.70;3.95;;;17.20;96.70;;;;;;4909766;29;20425;-76
2024/01/04 13:03:23;;;;;;;13.07;3.13;;;17.10;96.70;;;;;;4911686;29;20370;-76
2024/01/04 13:05:52;;;;;;;16.38;3.20;;;16.90;96.70;;;;;;4911753;29;19974;-76
2024/01/04 13:08:20;;;;;;;14.32;4.22;;;17.00;96.70;;;;;;4898211;29;20059;-76
2024/01/04 13:10:51;;;;;;;15.80;3.40;;;16.80;96.70;;;;;;4910984;29;20055;-78
2024/01/04 13:13:19;;;;;;;11.80;2.58;;;16.90;96.70;;;;;;4927272;29;20087;-77
2024/01/04 13:15:47;;;;;;;15.88;3.13;;;16.90;96.70;;;;;;4926450;29;20142;-76
2024/01/04 13:18:16;;;;;;;11.48;2.97;;;17.00;96.70;;;;;;4926029;29;20469;-77
2024/01/04 13:20:45;;;;;;;19.20;3.33;;;17.00;96.70;;;;;;4913732;29;20063;-77
2024/01/04 13:23:14;;;;;;;16.55;3.05;;;16.90;96.70;;;;;;4910868;29;20147;-76
2024/01/04 13:25:42;;;;;;;15.50;3.47;;;16.90;96.70;;;;;;4911286;29;20056;-76
2024/01/04 13:28:22;;;;;;;15.93;3.05;;;16.90;96.70;;;;;;4924744;29;20051;-75
2024/01/04 13:30:57;;;;;;;15.57;3.55;;;16.80;96.70;;;;;;4908477;29;20547;-76
2024/01/04 13:33:26;;;;;;;19.42;3.70;;;16.60;96.70;;;;;;4910523;29;20059;-78
2024/01/04 13:35:56;;;;;;;16.00;3.53;;;16.50;96.70;;;;;;4928087;29;20155;-81
2024/01/04 13:38:28;;;;;;;9.65;2.60;;;16.50;96.70;;;;;;4921148;29;20055;-77
2024/01/04 13:40:57;;;;;;;14.32;3.88;;;16.50;96.70;;;;;;4912384;29;20074;-77
2024/01/04 13:43:47;;;;;;;11.75;2.72;;;16.50;96.70;;;;;;4925939;29;20060;-77
2024/01/04 13:49:41;;;;;;;15.80;3.08;;;16.50;96.70;;;;;;4932642;29;20787;-76
2024/01/04 13:57:28;;;;;;;13.77;2.70;;;16.40;96.70;;;;;;4926397;29;20050;-76